Time;durP1;ratioP1;P1;durP2;ratioP2;P2;SDS_P1;SDS_P2;PMS_P1;PMS_P2;Temp;Humidity;BMP_temperature;BMP_pressure;BME280_temperature;BME280_humidity;BME280_pressure;Samples;Min_cycle;Max_cycle;Signal;HPM_P1;HPM_P2
2023/06/27 00:00:56;;;;;;;2.15;1.45;;;;;;;19.80;84.66;100217.34;4940868;28;20233;-73
2023/06/27 00:03:24;;;;;;;3.58;2.17;;;;;;;19.80;85.68;100235.25;4936579;28;20225;-73
2023/06/27 00:05:51;;;;;;;2.10;1.33;;;;;;;19.73;86.76;100252.47;4939082;28;20324;-73
2023/06/27 00:08:18;;;;;;;4.65;2.40;;;;;;;19.75;86.02;100259.56;4935983;28;20253;-74
2023/06/27 00:10:45;;;;;;;2.47;1.60;;;;;;;19.68;87.44;100271.41;4940250;28;20233;-74
2023/06/27 00:13:16;;;;;;;5.85;2.38;;;;;;;19.67;86.62;100269.66;4936254;28;20230;-73
2023/06/27 00:15:43;;;;;;;2.72;1.67;;;;;;;19.78;86.51;100280.06;4939275;28;20300;-73
2023/06/27 00:18:10;;;;;;;4.47;2.17;;;;;;;19.68;85.70;100265.16;4935803;28;20230;-74
2023/06/27 00:20:37;;;;;;;3.03;2.10;;;;;;;19.58;87.08;100277.97;4940008;28;20309;-73
2023/06/27 00:23:18;;;;;;;4.32;1.95;;;;;;;19.59;88.39;100292.28;4950692;28;20229;-73
2023/06/27 00:25:45;;;;;;;1.67;1.20;;;;;;;19.50;91.28;100333.59;4942027;28;20702;-73
2023/06/27 00:28:12;;;;;;;4.00;1.95;;;;;;;19.54;90.13;100331.75;4933287;28;20235;-73
2023/06/27 00:30:39;;;;;;;2.00;1.30;;;;;;;19.50;89.69;100321.09;4940578;28;20738;-74
2023/06/27 00:33:06;;;;;;;3.80;1.98;;;;;;;19.45;89.71;100327.47;4939811;28;20241;-73
2023/06/27 00:35:32;;;;;;;2.85;1.80;;;;;;;19.44;90.52;100336.44;4936367;28;20237;-74
2023/06/27 00:38:01;;;;;;;2.67;1.85;;;;;;;19.36;91.99;100344.72;4946668;28;20614;-73
2023/06/27 00:40:28;;;;;;;2.50;1.70;;;;;;;19.30;93.12;100363.66;4934881;28;20233;-73
2023/06/27 00:42:55;;;;;;;2.78;1.75;;;;;;;19.37;92.53;100375.97;4936738;28;20234;-73
2023/06/27 00:45:23;;;;;;;2.50;1.60;;;;;;;19.24;95.01;100390.63;4929826;28;20245;-74
2023/06/27 00:47:51;;;;;;;2.58;1.55;;;;;;;19.33;91.11;100373.41;4936888;28;20234;-73
2023/06/27 00:50:19;;;;;;;3.92;2.25;;;;;;;19.24;95.93;100419.25;4934187;28;20308;-74
2023/06/27 00:52:46;;;;;;;2.03;1.40;;;;;;;18.96;97.26;100411.06;4941019;28;20229;-73
2023/06/27 00:55:13;;;;;;;3.35;1.92;;;;;;;19.04;97.34;100428.69;4931915;28;20230;-73
2023/06/27 00:57:40;;;;;;;2.15;1.35;;;;;;;19.03;100.00;100483.22;4941535;28;20233;-73
2023/06/27 01:00:11;;;;;;;5.05;2.53;;;;;;;19.03;100.00;100506.47;4935799;28;20232;-73
2023/06/27 01:02:38;;;;;;;2.42;1.58;;;;;;;19.06;100.00;100495.66;4937667;28;20317;-73
2023/06/27 01:05:07;;;;;;;3.85;1.77;;;;;;;19.06;100.00;100512.63;4935287;28;20241;-73
2023/06/27 01:07:38;;;;;;;2.72;1.75;;;;;;;19.05;100.00;100499.25;4938891;28;20246;-73
2023/06/27 01:10:27;;;;;;;4.00;2.10;;;;;;;19.04;100.00;100529.66;4934546;28;20340;-73
2023/06/27 01:13:06;;;;;;;3.17;2.10;;;;;;;18.91;100.00;100496.03;4947049;28;20285;-73
2023/06/27 01:15:34;;;;;;;3.05;1.90;;;;;;;18.93;99.78;100491.53;4934873;28;20238;-73
2023/06/27 01:18:00;;;;;;;1.80;1.27;;;;;;;19.02;98.28;100488.63;4938182;28;20230;-74
2023/06/27 01:20:28;;;;;;;2.05;1.40;;;;;;;18.99;97.57;100480.66;4940280;28;20275;-73
2023/06/27 01:23:19;;;;;;;3.00;1.92;;;;;;;18.81;100.00;100492.69;4953048;28;20222;-73
2023/06/27 01:25:46;;;;;;;2.80;1.70;;;;;;;18.89;99.57;100498.75;4941727;28;20236;-73
2023/06/27 01:28:14;;;;;;;8.43;2.97;;;;;;;18.79;100.00;100510.63;4932615;28;20237;-73
2023/06/27 01:30:41;;;;;;;2.50;1.55;;;;;;;18.77;100.00;100529.41;4940002;28;20257;-73
2023/06/27 01:33:21;;;;;;;4.80;2.35;;;;;;;18.69;100.00;100547.44;4932360;28;20230;-73
2023/06/27 01:36:11;;;;;;;2.88;1.90;;;;;;;18.89;100.00;100547.00;4937398;28;20233;-73
2023/06/27 01:38:44;;;;;;;2.13;1.52;;;;;;;18.84;100.00;100541.75;4952405;23;20240;-75
2023/06/27 01:41:16;;;;;;;6.63;2.58;;;;;;;18.81;100.00;100549.84;4955396;28;20229;-75
2023/06/27 01:43:44;;;;;;;3.67;2.00;;;;;;;18.77;100.00;100517.81;4958158;28;20316;-75
2023/06/27 01:46:11;;;;;;;7.13;2.75;;;;;;;18.75;100.00;100523.19;4951449;28;20229;-75
2023/06/27 01:48:40;;;;;;;3.25;1.85;;;;;;;18.74;100.00;100534.81;4958014;28;20236;-75
2023/06/27 01:51:07;;;;;;;15.50;8.25;;;;;;;18.71;100.00;100556.34;4952307;28;20579;-74
2023/06/27 01:53:35;;;;;;;2.22;1.45;;;;;;;18.69;100.00;100515.31;4967307;28;20243;-74
2023/06/27 01:56:03;;;;;;;4.20;2.08;;;;;;;18.71;100.00;100539.38;4959920;28;20241;-73
2023/06/27 01:58:30;;;;;;;2.63;1.50;;;;;;;18.52;100.00;100537.06;4967421;28;20299;-74
2023/06/27 02:00:56;;;;;;;3.42;2.10;;;;;;;18.54;100.00;100545.06;4977770;28;20315;-75
2023/06/27 02:03:23;;;;;;;4.88;2.53;;;;;;;18.29;100.00;100562.56;4950234;28;20228;-76
2023/06/27 02:05:50;;;;;;;2.80;1.73;;;;;;;18.27;100.00;100570.63;4947344;28;20218;-74
2023/06/27 02:08:16;;;;;;;5.68;2.70;;;;;;;18.42;100.00;100609.59;4954396;28;20697;-73
2023/06/27 02:10:43;;;;;;;3.25;1.65;;;;;;;18.33;100.00;100613.34;4960904;28;20232;-73
2023/06/27 02:13:09;;;;;;;4.38;2.38;;;;;;;18.11;100.00;100639.63;4954654;28;20225;-73
2023/06/27 02:15:36;;;;;;;5.88;3.13;;;;;;;17.78;100.00;100630.41;4954290;28;20232;-74
2023/06/27 02:18:04;;;;;;;4.93;2.55;;;;;;;17.85;100.00;100664.16;4954813;28;20227;-76
2023/06/27 02:20:31;;;;;;;2.63;1.60;;;;;;;17.87;100.00;100673.06;4961269;28;20233;-73
2023/06/27 02:22:58;;;;;;;2.28;1.42;;;;;;;17.90;100.00;100680.13;4959214;28;20230;-74
2023/06/27 02:25:24;;;;;;;2.17;1.50;;;;;;;17.81;100.00;100683.84;4965661;28;20241;-73
2023/06/27 02:27:51;;;;;;;2.08;1.17;;;;;;;17.78;100.00;100694.59;4957543;28;20257;-74
2023/06/27 02:30:18;;;;;;;6.57;3.28;;;;;;;17.79;100.00;100692.81;4959897;28;20504;-76
2023/06/27 02:32:44;;;;;;;2.67;1.65;;;;;;;17.82;100.00;100698.13;4962731;28;20232;-76
2023/06/27 02:35:15;;;;;;;5.93;2.90;;;;;;;17.72;100.00;100716.09;4961404;28;20233;-74
2023/06/27 02:37:44;;;;;;;2.40;1.40;;;;;;;17.59;100.00;100711.81;4966198;28;20236;-74
2023/06/27 02:40:11;;;;;;;5.43;2.42;;;;;;;17.51;100.00;100703.03;4961528;28;20233;-73
2023/06/27 02:42:38;;;;;;;2.95;1.75;;;;;;;17.67;100.00;100734.00;4963639;28;20646;-74
2023/06/27 02:45:05;;;;;;;5.07;2.80;;;;;;;17.60;100.00;100759.94;4951862;28;20247;-76
2023/06/27 02:47:32;;;;;;;4.07;2.25;;;;;;;17.70;100.00;100799.97;4964163;28;20228;-76
2023/06/27 02:49:59;;;;;;;3.65;2.00;;;;;;;17.57;100.00;100759.97;4962958;28;20225;-74
2023/06/27 02:52:25;;;;;;;2.67;1.58;;;;;;;17.53;100.00;100774.31;4956270;28;20233;-74
2023/06/27 02:54:52;;;;;;;3.40;1.73;;;;;;;17.73;100.00;100808.81;4969828;28;20229;-73
2023/06/27 02:57:20;;;;;;;5.57;2.45;;;;;;;17.71;100.00;100743.75;4959374;28;20237;-75
2023/06/27 02:59:46;;;;;;;2.10;1.42;;;;;;;17.73;100.00;100787.41;4956258;28;20235;-74
2023/06/27 03:02:13;;;;;;;6.28;2.58;;;;;;;17.51;100.00;100762.75;4965311;28;20233;-74
2023/06/27 03:04:40;;;;;;;4.90;2.60;;;;;;;17.58;100.00;100763.53;4974445;28;20314;-74
2023/06/27 03:07:06;;;;;;;4.07;2.00;;;;;;;17.73;100.00;100763.34;4958840;28;20756;-75
2023/06/27 03:09:35;;;;;;;2.55;1.63;;;;;;;17.84;100.00;100725.72;4963526;28;20692;-74
2023/06/27 03:12:01;;;;;;;4.65;2.42;;;;;;;17.86;100.00;100644.53;4961639;28;20249;-73
2023/06/27 03:14:29;;;;;;;2.20;1.33;;;;;;;17.78;100.00;100659.81;4953110;28;20267;-75
2023/06/27 03:16:55;;;;;;;1.95;1.48;;;;;;;17.73;100.00;100685.78;4959499;28;20233;-75
2023/06/27 03:19:22;;;;;;;2.60;1.50;;;;;;;17.69;100.00;100702.78;4948135;28;20244;-74
2023/06/27 03:22:04;;;;;;;3.20;1.65;;;;;;;17.67;100.00;100680.53;4940531;28;20221;-76
2023/06/27 03:24:32;;;;;;;2.25;1.40;;;;;;;17.71;100.00;100631.41;4944317;28;20559;-75
2023/06/27 03:26:59;;;;;;;2.67;1.45;;;;;;;17.72;100.00;100646.56;4958822;28;20236;-75
2023/06/27 03:29:25;;;;;;;3.35;1.70;;;;;;;17.64;100.00;100647.56;4959935;28;20567;-75
2023/06/27 03:31:52;;;;;;;3.92;2.20;;;;;;;17.58;100.00;100654.78;4960673;28;20228;-76
2023/06/27 03:34:19;;;;;;;4.55;1.75;;;;;;;17.52;100.00;100640.63;4955636;28;20273;-76
2023/06/27 03:36:45;;;;;;;2.17;1.30;;;;;;;17.58;100.00;100654.78;4954911;28;20237;-74
2023/06/27 03:39:12;;;;;;;3.90;1.92;;;;;;;17.46;100.00;100663.00;4959365;28;20279;-75
2023/06/27 03:41:39;;;;;;;2.75;1.48;;;;;;;17.37;100.00;100663.13;4963777;28;20245;-75
2023/06/27 03:44:05;;;;;;;6.95;2.35;;;;;;;17.39;100.00;100671.13;4954399;28;20233;-75
2023/06/27 03:46:32;;;;;;;3.50;1.95;;;;;;;17.18;100.00;100675.00;4967190;28;20244;-75
2023/06/27 03:48:59;;;;;;;3.38;1.90;;;;;;;17.31;100.00;100679.25;4959469;28;20232;-75
2023/06/27 03:51:26;;;;;;;2.72;1.55;;;;;;;17.29;100.00;100670.38;4967586;28;20229;-77
2023/06/27 03:53:52;;;;;;;2.70;1.55;;;;;;;17.23;100.00;100667.81;4962153;28;20235;-75
2023/06/27 03:56:19;;;;;;;5.32;2.05;;;;;;;17.20;100.00;100654.47;4959095;28;20237;-75
2023/06/27 03:58:46;;;;;;;2.47;1.35;;;;;;;17.19;100.00;100683.00;4960170;28;20244;-75
2023/06/27 04:01:13;;;;;;;2.97;1.42;;;;;;;17.02;100.00;100703.72;4958006;28;20233;-75
2023/06/27 04:03:39;;;;;;;3.10;1.88;;;;;;;17.18;100.00;100718.66;4963356;28;20237;-75
2023/06/27 04:06:06;;;;;;;4.60;1.98;;;;;;;17.36;100.00;100682.75;4958293;28;20225;-75
2023/06/27 04:08:33;;;;;;;3.70;1.92;;;;;;;17.39;100.00;100677.34;4961743;28;20229;-74
2023/06/27 04:11:00;;;;;;;2.75;1.45;;;;;;;17.36;100.00;100669.38;4958603;28;20239;-75
2023/06/27 04:13:27;;;;;;;3.50;1.83;;;;;;;17.33;100.00;100668.56;4965782;28;20253;-76
2023/06/27 04:15:53;;;;;;;3.67;1.83;;;;;;;17.25;100.00;100698.94;4965040;28;20233;-74
2023/06/27 04:18:20;;;;;;;2.90;1.50;;;;;;;17.23;100.00;100739.97;4949153;28;20243;-76
2023/06/27 04:20:47;;;;;;;2.42;1.40;;;;;;;17.33;100.00;100751.41;4963192;28;20221;-76
2023/06/27 04:23:13;;;;;;;5.53;2.45;;;;;;;17.31;100.00;100753.22;4956862;28;20234;-75
2023/06/27 04:25:44;;;;;;;3.08;1.60;;;;;;;17.35;100.00;100734.44;4965684;28;20292;-75
2023/06/27 04:28:10;;;;;;;6.25;2.63;;;;;;;17.36;100.00;100711.28;4963059;28;20247;-76
2023/06/27 04:30:37;;;;;;;2.45;1.40;;;;;;;17.41;100.00;100706.75;4964440;28;20236;-74
2023/06/27 04:33:04;;;;;;;7.07;3.35;;;;;;;17.46;100.00;100704.88;4962701;28;20236;-76
2023/06/27 04:35:30;;;;;;;2.92;1.58;;;;;;;17.48;100.00;100709.31;4965512;28;20265;-75
2023/06/27 04:37:57;;;;;;;3.53;2.00;;;;;;;17.47;100.00;100685.25;4965626;28;20237;-76
2023/06/27 04:40:27;;;;;;;4.10;2.03;;;;;;;17.50;100.00;100682.53;4959044;28;20247;-75
2023/06/27 04:42:53;;;;;;;3.38;1.70;;;;;;;17.48;100.00;100679.00;4964975;28;20260;-75
2023/06/27 04:45:20;;;;;;;3.20;1.60;;;;;;;17.48;100.00;100687.03;4960797;28;20347;-74
2023/06/27 04:47:47;;;;;;;4.20;2.17;;;;;;;17.49;100.00;100726.22;4965562;28;20237;-75
2023/06/27 04:50:18;;;;;;;8.23;3.28;;;;;;;17.60;100.00;100773.31;4967430;28;20233;-75
2023/06/27 04:52:45;;;;;;;2.65;1.45;;;;;;;17.68;100.00;100759.84;4966823;28;20239;-76
2023/06/27 04:55:12;;;;;;;6.00;2.50;;;;;;;17.69;100.00;100761.63;4966351;28;20236;-76
2023/06/27 04:57:39;;;;;;;3.80;1.90;;;;;;;17.66;100.00;100758.06;4962883;28;20236;-77
2023/06/27 05:00:09;;;;;;;8.63;3.00;;;;;;;17.69;100.00;100752.72;4954941;28;20225;-76
2023/06/27 05:02:36;;;;;;;2.97;1.58;;;;;;;17.73;100.00;100758.00;4986959;28;20233;-76
2023/06/27 05:05:15;;;;;;;3.25;1.60;;;;;;;17.86;100.00;100774.75;4979989;28;20310;-76
2023/06/27 05:07:42;;;;;;;3.20;1.65;;;;;;;17.99;100.00;100784.34;4966408;28;20225;-75
2023/06/27 05:10:08;;;;;;;7.22;2.58;;;;;;;18.01;100.00;100774.50;4960759;28;20236;-77
2023/06/27 05:12:35;;;;;;;3.22;1.60;;;;;;;18.15;100.00;100766.25;4965707;28;20248;-77
2023/06/27 05:15:02;;;;;;;3.03;1.58;;;;;;;18.26;100.00;100755.38;4961816;28;20243;-76
2023/06/27 05:17:28;;;;;;;2.88;1.55;;;;;;;18.36;100.00;100770.38;4962548;28;20229;-76
2023/06/27 05:19:55;;;;;;;3.28;1.73;;;;;;;18.55;100.00;100770.03;4967007;28;20229;-75
2023/06/27 05:22:22;;;;;;;3.15;1.52;;;;;;;18.49;100.00;100732.66;4957695;28;20237;-76
2023/06/27 05:24:48;;;;;;;2.47;1.25;;;;;;;18.60;100.00;100736.91;4957286;28;20248;-76
2023/06/27 05:27:15;;;;;;;6.47;2.53;;;;;;;18.59;100.00;100701.22;4961293;28;20233;-76
2023/06/27 05:29:42;;;;;;;3.00;1.45;;;;;;;18.57;100.00;100697.69;4965751;28;20236;-76
2023/06/27 05:32:08;;;;;;;8.13;2.90;;;;;;;18.69;100.00;100702.81;4943210;28;20284;-76
2023/06/27 05:34:35;;;;;;;3.28;1.75;;;;;;;18.75;100.00;100707.19;4956615;28;20313;-76
2023/06/27 05:37:02;;;;;;;3.47;1.75;;;;;;;18.77;100.00;100713.38;4969238;28;20248;-76
2023/06/27 05:39:28;;;;;;;3.13;1.52;;;;;;;18.81;100.00;100723.13;4979912;28;20244;-76
2023/06/27 05:41:55;;;;;;;5.90;2.15;;;;;;;18.86;100.00;100694.44;4972849;28;20309;-76
2023/06/27 05:44:22;;;;;;;3.50;1.60;;;;;;;18.97;100.00;100692.41;4945188;28;20236;-77
2023/06/27 05:46:48;;;;;;;3.08;1.65;;;;;;;19.12;100.00;100676.00;4965731;28;20240;-76
2023/06/27 05:49:15;;;;;;;5.47;2.33;;;;;;;19.12;100.00;100680.47;4961722;28;20603;-75
2023/06/27 05:51:42;;;;;;;2.63;1.40;;;;;;;19.18;100.00;100681.22;4972165;28;20244;-76
2023/06/27 05:54:09;;;;;;;4.95;2.10;;;;;;;19.21;100.00;100660.63;4942646;28;20245;-76
2023/06/27 05:56:35;;;;;;;2.65;1.45;;;;;;;19.35;100.00;100667.44;4954651;28;20240;-77
2023/06/27 05:59:02;;;;;;;4.53;2.05;;;;;;;19.44;100.00;100675.28;4942832;28;20293;-76
2023/06/27 06:01:29;;;;;;;2.83;1.52;;;;;;;19.54;97.76;100659.91;4950281;28;20233;-76
2023/06/27 06:03:55;;;;;;;3.15;1.65;;;;;;;19.57;94.53;100616.03;4965301;28;20591;-76
2023/06/27 06:06:22;;;;;;;2.65;1.70;;;;;;;19.66;95.40;100619.34;4956285;28;20237;-75
2023/06/27 06:08:49;;;;;;;2.53;1.42;;;;;;;19.79;94.95;100623.50;4961901;28;20228;-76
2023/06/27 06:11:16;;;;;;;7.30;2.63;;;;;;;19.86;94.21;100612.59;4961441;28;20237;-76
2023/06/27 06:13:42;;;;;;;3.40;1.85;;;;;;;19.79;91.96;100563.56;4959347;28;20257;-75
2023/06/27 06:16:09;;;;;;;4.28;1.83;;;;;;;19.83;90.51;100540.22;4944219;28;20283;-75
2023/06/27 06:18:35;;;;;;;3.20;1.60;;;;;;;20.03;91.33;100567.38;4965549;28;20229;-75
2023/06/27 06:21:02;;;;;;;5.03;2.17;;;;;;;19.96;90.42;100545.19;4968649;28;20240;-76
2023/06/27 06:23:29;;;;;;;5.85;2.22;;;;;;;20.18;92.77;100580.38;4971798;28;20236;-74
2023/06/27 06:25:56;;;;;;;3.00;1.58;;;;;;;20.38;88.98;100547.59;4968338;28;20229;-76
2023/06/27 06:28:22;;;;;;;3.42;1.67;;;;;;;20.35;87.68;100505.59;4972691;28;20240;-76
2023/06/27 06:30:49;;;;;;;2.97;1.40;;;;;;;20.29;86.72;100476.22;4971580;28;20291;-76
2023/06/27 06:33:16;;;;;;;7.95;3.10;;;;;;;20.44;89.08;100520.56;4960851;28;20237;-75
2023/06/27 06:38:29;;;;;;;4.22;2.00;;;;;;;20.55;89.52;100512.19;4919091;29;20249;-80
2023/06/27 06:40:55;;;;;;;5.03;2.75;;;;;;;20.85;89.63;100537.25;4913865;29;20353;-79
2023/06/27 06:43:25;;;;;;;4.97;2.42;;;;;;;20.73;89.16;100511.63;4915553;29;20230;-80
2023/06/27 06:45:52;;;;;;;3.47;1.77;;;;;;;20.62;87.24;100470.75;4926393;29;20314;-79
2023/06/27 06:48:19;;;;;;;6.78;2.80;;;;;;;20.44;83.18;100389.81;4938107;28;20312;-79
2023/06/27 06:50:47;;;;;;;3.70;2.00;;;;;;;20.49;86.33;100421.91;4922315;29;20281;-79
2023/06/27 06:53:14;;;;;;;5.47;2.35;;;;;;;20.43;86.51;100428.38;4920823;28;20238;-81
2023/06/27 06:55:41;;;;;;;4.05;2.10;;;;;;;20.61;88.18;100458.25;4926774;29;20238;-80
2023/06/27 06:58:08;;;;;;;7.07;3.08;;;;;;;20.06;84.54;100334.63;4924135;28;20238;-80
2023/06/27 07:00:37;;;;;;;3.38;1.75;;;;;;;20.67;85.35;100407.00;4916388;29;20286;-79
2023/06/27 07:03:04;;;;;;;6.10;2.65;;;;;;;21.13;85.25;100437.75;4909693;29;20268;-79
2023/06/27 07:05:31;;;;;;;3.65;1.90;;;;;;;21.36;83.66;100445.94;4925388;29;20234;-79
2023/06/27 07:07:58;;;;;;;3.40;1.80;;;;;;;21.88;81.78;100457.50;4924844;28;20238;-79
2023/06/27 07:10:25;;;;;;;3.42;1.90;;;;;;;21.60;79.88;100401.13;4916722;29;20250;-79
2023/06/27 07:12:52;;;;;;;2.58;1.50;;;;;;;21.26;78.18;100308.22;4919764;29;20301;-80
2023/06/27 07:15:21;;;;;;;4.90;2.55;;;;;;;21.25;79.62;100311.84;4915434;29;20260;-79
2023/06/27 07:17:48;;;;;;;4.38;2.25;;;;;;;21.35;82.45;100366.16;4937846;28;20337;-79
2023/06/27 07:20:16;;;;;;;7.88;2.97;;;;;;;21.14;80.42;100300.56;4921837;28;20233;-79
2023/06/27 07:22:43;;;;;;;3.40;1.73;;;;;;;21.39;81.67;100333.72;4926846;29;20230;-79
2023/06/27 07:25:09;;;;;;;8.57;3.45;;;;;;;21.99;80.76;100393.38;4920566;29;20327;-80
2023/06/27 07:27:36;;;;;;;3.65;2.17;;;;;;;21.59;79.32;100308.75;4924501;29;20245;-80
2023/06/27 07:30:03;;;;;;;5.65;2.33;;;;;;;21.72;80.58;100346.84;4921769;29;20226;-79
2023/06/27 07:32:30;;;;;;;3.00;1.60;;;;;;;21.65;79.18;100296.88;4930818;29;20229;-80
2023/06/27 07:34:57;;;;;;;3.25;1.65;;;;;;;22.01;79.58;100343.91;4938573;28;20252;-80
2023/06/27 07:37:23;;;;;;;2.97;1.52;;;;;;;22.13;77.90;100328.25;4936051;29;20611;-81
2023/06/27 07:39:50;;;;;;;3.45;2.05;;;;;;;22.27;77.15;100296.25;4969443;23;20230;-74
2023/06/27 07:42:17;;;;;;;5.97;2.40;;;;;;;22.11;75.10;100252.03;4931247;28;20229;-75
2023/06/27 07:44:44;;;;;;;3.03;1.88;;;;;;;22.01;73.34;100189.53;4933490;28;20242;-75
2023/06/27 07:47:11;;;;;;;5.13;2.05;;;;;;;22.19;72.98;100190.63;4925703;28;20229;-74
2023/06/27 07:49:37;;;;;;;2.42;1.52;;;;;;;22.30;74.61;100201.81;4931398;28;20226;-77
2023/06/27 07:52:07;;;;;;;3.70;1.65;;;;;;;22.58;72.90;100207.78;4923204;28;20239;-76
2023/06/27 07:54:35;;;;;;;2.28;1.27;;;;;;;22.51;72.17;100173.94;4922368;29;20233;-73
2023/06/27 07:57:02;;;;;;;3.60;2.05;;;;;;;22.57;72.07;100165.59;4928746;28;20232;-74
2023/06/27 07:59:29;;;;;;;2.75;1.45;;;;;;;22.79;71.94;100180.81;4941418;28;20243;-74
2023/06/27 08:01:56;;;;;;;3.30;1.75;;;;;;;23.03;73.99;100228.25;4917126;29;20607;-74
2023/06/27 08:04:22;;;;;;;2.05;1.25;;;;;;;23.76;71.18;100243.75;4920951;28;20304;-74
2023/06/27 08:06:50;;;;;;;3.47;2.10;;;;;;;23.47;66.00;100095.81;4926213;28;20256;-74
2023/06/27 08:09:16;;;;;;;4.15;1.88;;;;;;;24.50;66.78;100204.03;4917489;28;20697;-74
2023/06/27 08:11:43;;;;;;;3.35;1.92;;;;;;;23.16;66.96;99996.59;4922341;28;20740;-73
2023/06/27 08:14:12;;;;;;;5.90;2.75;;;;;;;23.18;67.81;100008.19;4948531;28;20240;-74
2023/06/27 08:16:39;;;;;;;2.90;1.55;;;;;;;24.34;66.77;100134.63;4958056;28;20240;-74
2023/06/27 08:19:06;;;;;;;5.32;2.88;;;;;;;24.00;64.82;100047.22;4934130;28;20333;-74
2023/06/27 08:21:32;;;;;;;3.17;1.80;;;;;;;25.10;65.40;100163.03;4960096;28;20240;-74
2023/06/27 08:23:59;;;;;;;2.60;1.70;;;;;;;24.70;61.35;99992.06;4957801;28;20241;-74
2023/06/27 08:26:26;;;;;;;2.42;1.52;;;;;;;24.13;60.92;99885.34;4961118;28;20259;-74
2023/06/27 08:28:52;;;;;;;2.28;1.55;;;;;;;24.97;61.88;100015.84;4961197;28;20245;-74
2023/06/27 08:31:19;;;;;;;4.35;1.77;;;;;;;24.39;60.26;99881.22;4951744;28;20239;-74
2023/06/27 08:33:46;;;;;;;2.70;1.50;;;;;;;24.46;60.09;99886.19;4958882;28;20232;-74
2023/06/27 08:36:13;;;;;;;6.03;2.47;;;;;;;24.02;60.64;99812.13;4956262;28;20232;-76
2023/06/27 08:38:39;;;;;;;2.55;1.50;;;;;;;24.91;60.42;99913.41;4964489;28;20299;-76
2023/06/27 08:41:08;;;;;;;5.47;2.25;;;;;;;24.41;58.09;99790.09;4956722;28;20233;-76
2023/06/27 08:43:35;;;;;;;3.83;2.15;;;;;;;25.02;59.06;99887.50;4945967;28;20265;-77
2023/06/27 08:46:03;;;;;;;2.53;1.45;;;;;;;24.16;58.55;99742.88;4942461;28;20229;-76
2023/06/27 08:48:29;;;;;;;3.53;1.92;;;;;;;24.41;64.12;99863.09;4943926;28;20232;-75
2023/06/27 08:50:57;;;;;;;2.80;1.50;;;;;;;24.64;65.35;99905.00;4960242;28;20729;-75
2023/06/27 08:53:27;;;;;;;3.95;2.28;;;;;;;24.75;64.46;99913.41;4944778;28;20256;-75
2023/06/27 08:56:14;;;;;;;2.47;1.42;;;;;;;25.29;64.01;99958.06;4959007;28;20236;-76
2023/06/27 08:58:48;;;;;;;2.00;1.27;;;;;;;25.75;59.27;99918.28;4959231;28;20244;-77
2023/06/27 09:01:14;;;;;;;6.07;2.38;;;;;;;26.07;60.48;99950.66;4943371;28;20228;-76
2023/06/27 09:03:41;;;;;;;2.65;1.60;;;;;;;26.37;57.09;99912.63;4946804;28;20250;-76
2023/06/27 09:06:09;;;;;;;4.50;2.00;;;;;;;25.75;55.32;99738.66;4963205;28;20964;-76
2023/06/27 09:08:35;;;;;;;3.50;1.77;;;;;;;25.41;58.65;99756.13;4978446;28;20231;-76
2023/06/27 09:11:08;;;;;;;3.55;1.80;;;;;;;25.81;58.22;99800.53;4975881;28;20232;-76
2023/06/27 09:13:39;;;;;;;2.30;1.50;;;;;;;26.32;57.56;99834.31;4963582;28;20228;-76
2023/06/27 09:16:06;;;;;;;4.43;2.13;;;;;;;25.88;59.00;99776.66;4938145;28;20238;-76
2023/06/27 09:18:35;;;;;;;2.10;1.25;;;;;;;24.57;59.25;99621.53;4933026;28;20232;-76
2023/06/27 09:21:02;;;;;;;3.58;1.65;;;;;;;25.80;58.32;99766.31;4959655;28;20239;-76
2023/06/27 09:23:30;;;;;;;4.45;2.20;;;;;;;25.92;54.93;99697.78;4967098;28;20235;-75
2023/06/27 09:26:12;;;;;;;2.97;1.70;;;;;;;27.24;55.76;99856.16;4958193;28;20225;-76
2023/06/27 09:28:49;;;;;;;2.63;1.50;;;;;;;26.65;50.58;99587.13;4963305;28;20239;-76
2023/06/27 09:31:20;;;;;;;2.72;1.42;;;;;;;26.32;56.01;99684.31;4943723;28;20231;-76
2023/06/27 09:33:48;;;;;;;1.88;1.10;;;;;;;25.44;55.80;99552.94;4947543;28;20244;-77
2023/06/27 09:36:34;;;;;;;4.85;2.20;;;;;;;26.33;54.49;99661.69;4952465;28;20239;-76
2023/06/27 09:39:06;;;;;;;2.58;1.60;;;;;;;26.39;52.32;99588.94;4958199;28;20243;-76
2023/06/27 09:41:47;;;;;;;2.50;1.30;;;;;;;24.83;54.30;99418.97;4964879;28;20614;-76
2023/06/27 09:44:16;;;;;;;3.65;1.70;;;;;;;24.73;54.25;99429.50;4938896;28;20237;-76
2023/06/27 09:46:43;;;;;;;2.55;1.40;;;;;;;24.93;54.77;99481.41;4970931;28;20262;-75
2023/06/27 09:49:10;;;;;;;1.60;1.10;;;;;;;24.93;56.68;99522.88;4979263;28;20314;-75
2023/06/27 09:51:38;;;;;;;2.35;1.50;;;;;;;25.03;55.59;99521.34;4965898;28;20235;-76
2023/06/27 09:54:05;;;;;;;3.38;1.73;;;;;;;25.47;54.23;99541.91;4944090;28;20283;-75
2023/06/27 09:56:33;;;;;;;2.40;1.35;;;;;;;25.25;53.45;99474.78;4950233;28;20633;-75
2023/06/27 09:59:07;;;;;;;2.25;1.40;;;;;;;25.04;53.72;99450.03;4959006;28;20236;-75
2023/06/27 10:01:55;;;;;;;2.50;1.42;;;;;;;25.24;55.93;99531.72;4946476;28;20364;-75
2023/06/27 10:04:24;;;;;;;2.15;1.27;;;;;;;25.67;55.50;99581.22;4948534;28;20275;-76
2023/06/27 10:06:54;;;;;;;2.13;1.33;;;;;;;26.42;55.16;99656.50;4958672;28;20232;-76
2023/06/27 10:09:21;;;;;;;2.45;1.30;;;;;;;25.42;54.67;99498.03;4944500;28;20244;-75
2023/06/27 10:11:49;;;;;;;2.83;1.90;;;;;;;26.22;55.53;99629.00;4958440;28;20331;-76
2023/06/27 10:14:16;;;;;;;7.90;3.58;;;;;;;26.14;51.73;99513.00;4937068;28;20895;-76
2023/06/27 10:16:43;;;;;;;2.10;1.25;;;;;;;25.74;52.61;99456.13;4957541;28;20247;-75
2023/06/27 10:19:10;;;;;;;3.65;2.00;;;;;;;25.68;54.12;99483.63;4955383;28;20238;-76
2023/06/27 10:21:38;;;;;;;2.80;1.70;;;;;;;27.14;52.27;99648.75;4936248;28;20697;-74
2023/06/27 10:24:04;;;;;;;4.80;1.90;;;;;;;27.66;51.79;99680.34;4948599;28;20719;-75
2023/06/27 10:26:32;;;;;;;2.65;1.60;;;;;;;27.10;50.91;99568.53;4955880;28;20235;-75
2023/06/27 10:28:59;;;;;;;2.70;1.55;;;;;;;25.30;50.43;99299.47;4945998;28;20221;-75
2023/06/27 10:31:39;;;;;;;1.88;1.38;;;;;;;25.27;53.04;99386.25;4938870;28;20267;-77
2023/06/27 10:34:06;;;;;;;3.78;1.80;;;;;;;25.50;54.49;99458.63;4940956;28;20244;-74
2023/06/27 10:36:54;;;;;;;2.03;1.10;;;;;;;26.95;52.74;99621.16;4952577;28;20236;-75
2023/06/27 10:39:32;;;;;;;2.38;1.30;;;;;;;25.45;50.90;99351.66;4958539;28;20339;-74
2023/06/27 10:42:25;;;;;;;1.90;1.15;;;;;;;25.43;53.24;99405.91;4955300;28;20235;-75
2023/06/27 10:45:08;;;;;;;3.00;1.58;;;;;;;25.91;51.74;99437.84;4974440;28;20305;-75
2023/06/27 10:47:38;;;;;;;2.60;1.40;;;;;;;25.97;54.17;99495.16;4953586;28;20714;-75
2023/06/27 10:50:09;;;;;;;3.67;1.90;;;;;;;26.12;52.42;99486.00;4966798;28;20220;-75
2023/06/27 10:52:37;;;;;;;4.53;2.67;;;;;;;25.98;52.18;99445.44;4960615;28;20231;-75
2023/06/27 10:55:15;;;;;;;4.00;2.13;;;;;;;25.79;51.00;99401.66;4950098;28;20241;-75
2023/06/27 10:57:43;;;;;;;1.67;1.15;;;;;;;26.62;50.87;99510.53;4953706;28;21054;-75
2023/06/27 11:00:15;;;;;;;5.57;2.85;;;;;;;26.42;52.01;99474.88;4953963;28;20311;-76
2023/06/27 11:02:42;;;;;;;1.77;1.15;;;;;;;26.69;53.32;99545.22;4956296;28;20240;-75
2023/06/27 11:05:16;;;;;;;3.88;1.67;;;;;;;25.90;51.49;99398.19;4949602;28;20240;-75
2023/06/27 11:07:53;;;;;;;3.38;1.90;;;;;;;25.52;55.87;99431.47;4960612;28;20264;-75
2023/06/27 11:10:29;;;;;;;2.55;1.38;;;;;;;25.48;53.85;99405.56;4956442;28;20275;-75
2023/06/27 11:13:14;;;;;;;1.90;1.17;;;;;;;25.09;53.80;99361.31;4958420;28;20239;-76
2023/06/27 11:15:45;;;;;;;2.05;1.30;;;;;;;25.14;51.08;99287.97;4959631;28;20244;-76
2023/06/27 11:18:14;;;;;;;2.83;1.65;;;;;;;25.03;53.06;99318.47;4954275;28;20708;-76
2023/06/27 11:20:42;;;;;;;1.85;1.15;;;;;;;25.29;51.82;99329.34;4942410;28;20311;-82
2023/06/27 11:23:11;;;;;;;5.22;2.38;;;;;;;24.82;49.55;99198.19;4957212;28;20224;-77
2023/06/27 11:25:42;;;;;;;2.00;1.30;;;;;;;25.64;51.05;99338.56;4958638;28;20236;-79
2023/06/27 11:28:19;;;;;;;5.32;2.35;;;;;;;25.84;49.88;99343.47;4948301;28;20221;-76
2023/06/27 11:30:46;;;;;;;2.88;1.45;;;;;;;26.03;48.44;99324.09;4962840;28;20542;-75
2023/06/27 11:33:23;;;;;;;4.97;2.00;;;;;;;25.56;47.97;99223.69;4953704;28;20228;-76